sensor_id;sensor_type;location;lat;lon;timestamp;temperature;humidity
2212;DHT22;48849;48.758;9.158;2023-07-02T00:01:50;21.00;99.90
2212;DHT22;48849;48.758;9.158;2023-07-02T00:04:38;21.00;99.90
2212;DHT22;48849;48.758;9.158;2023-07-02T00:07:15;21.10;99.90
2212;DHT22;48849;48.758;9.158;2023-07-02T00:09:47;20.90;99.90
2212;DHT22;48849;48.758;9.158;2023-07-02T00:12:18;20.90;99.90
2212;DHT22;48849;48.758;9.158;2023-07-02T00:14:48;21.40;99.90
2212;DHT22;48849;48.758;9.158;2023-07-02T00:17:29;20.90;99.90
2212;DHT22;48849;48.758;9.158;2023-07-02T00:20:14;20.80;99.90
2212;DHT22;48849;48.758;9.158;2023-07-02T00:22:55;20.80;99.90
2212;DHT22;48849;48.758;9.158;2023-07-02T00:25:35;20.80;99.90
2212;DHT22;48849;48.758;9.158;2023-07-02T00:28:13;21.00;99.90
2212;DHT22;48849;48.758;9.158;2023-07-02T00:30:46;20.70;99.90
2212;DHT22;48849;48.758;9.158;2023-07-02T00:33:31;20.70;99.90
2212;DHT22;48849;48.758;9.158;2023-07-02T00:36:01;20.70;99.90
2212;DHT22;48849;48.758;9.158;2023-07-02T00:38:46;20.70;99.90
2212;DHT22;48849;48.758;9.158;2023-07-02T00:41:36;20.70;99.90
2212;DHT22;48849;48.758;9.158;2023-07-02T00:44:13;21.00;99.90
2212;DHT22;48849;48.758;9.158;2023-07-02T00:46:44;20.70;99.90
2212;DHT22;48849;48.758;9.158;2023-07-02T00:49:18;20.70;99.90
2212;DHT22;48849;48.758;9.158;2023-07-02T00:51:49;21.00;99.90
2212;DHT22;48849;48.758;9.158;2023-07-02T00:54:23;20.70;99.90
2212;DHT22;48849;48.758;9.158;2023-07-02T00:56:53;20.80;99.90
2212;DHT22;48849;48.758;9.158;2023-07-02T00:59:24;20.70;99.90
2212;DHT22;48849;48.758;9.158;2023-07-02T01:01:54;20.60;99.90
2212;DHT22;48849;48.758;9.158;2023-07-02T01:04:35;20.90;99.90
2212;DHT22;48849;48.758;9.158;2023-07-02T01:09:57;20.60;99.90
2212;DHT22;48849;48.758;9.158;2023-07-02T01:12:33;20.60;99.90
2212;DHT22;48849;48.758;9.158;2023-07-02T01:15:09;20.60;99.90
2212;DHT22;48849;48.758;9.158;2023-07-02T01:17:51;20.60;99.90
2212;DHT22;48849;48.758;9.158;2023-07-02T01:20:27;20.70;99.90
2212;DHT22;48849;48.758;9.158;2023-07-02T01:23:04;20.50;99.90
2212;DHT22;48849;48.758;9.158;2023-07-02T01:25:41;20.50;99.90
2212;DHT22;48849;48.758;9.158;2023-07-02T01:28:16;20.50;99.90
2212;DHT22;48849;48.758;9.158;2023-07-02T01:31:04;20.40;99.90
2212;DHT22;48849;48.758;9.158;2023-07-02T01:33:43;20.30;99.90
2212;DHT22;48849;48.758;9.158;2023-07-02T01:36:34;21.10;99.90
2212;DHT22;48849;48.758;9.158;2023-07-02T01:39:05;20.50;99.90
2212;DHT22;48849;48.758;9.158;2023-07-02T01:41:38;20.50;99.90
2212;DHT22;48849;48.758;9.158;2023-07-02T01:44:08;20.40;99.90
2212;DHT22;48849;48.758;9.158;2023-07-02T01:46:51;20.50;99.90
2212;DHT22;48849;48.758;9.158;2023-07-02T01:49:29;20.50;99.90
2212;DHT22;48849;48.758;9.158;2023-07-02T01:52:11;20.60;99.90
2212;DHT22;48849;48.758;9.158;2023-07-02T01:54:47;20.50;99.90
2212;DHT22;48849;48.758;9.158;2023-07-02T01:57:30;20.50;99.90
2212;DHT22;48849;48.758;9.158;2023-07-02T02:00:10;20.60;99.90
2212;DHT22;48849;48.758;9.158;2023-07-02T02:02:51;20.40;99.90
2212;DHT22;48849;48.758;9.158;2023-07-02T02:05:39;20.40;99.90
2212;DHT22;48849;48.758;9.158;2023-07-02T02:11:30;20.30;99.90
2212;DHT22;48849;48.758;9.158;2023-07-02T02:14:06;20.30;99.90
2212;DHT22;48849;48.758;9.158;2023-07-02T02:16:36;20.30;99.90
2212;DHT22;48849;48.758;9.158;2023-07-02T02:19:11;20.30;99.90
2212;DHT22;48849;48.758;9.158;2023-07-02T02:21:47;20.50;99.90
2212;DHT22;48849;48.758;9.158;2023-07-02T02:24:17;20.20;99.90
2212;DHT22;48849;48.758;9.158;2023-07-02T02:26:52;20.40;99.90
2212;DHT22;48849;48.758;9.158;2023-07-02T02:29:25;20.20;99.90
2212;DHT22;48849;48.758;9.158;2023-07-02T02:31:57;20.20;99.90
2212;DHT22;48849;48.758;9.158;2023-07-02T02:34:26;20.40;99.90
2212;DHT22;48849;48.758;9.158;2023-07-02T02:36:59;20.30;99.90
2212;DHT22;48849;48.758;9.158;2023-07-02T02:39:32;20.30;99.90
2212;DHT22;48849;48.758;9.158;2023-07-02T02:42:08;20.30;99.90
2212;DHT22;48849;48.758;9.158;2023-07-02T02:44:45;20.20;99.90
2212;DHT22;48849;48.758;9.158;2023-07-02T02:47:17;20.30;99.90
2212;DHT22;48849;48.758;9.158;2023-07-02T02:49:47;20.30;99.90
2212;DHT22;48849;48.758;9.158;2023-07-02T02:52:14;20.30;99.90
2212;DHT22;48849;48.758;9.158;2023-07-02T02:54:46;20.60;99.90
2212;DHT22;48849;48.758;9.158;2023-07-02T02:57:41;20.30;99.90
2212;DHT22;48849;48.758;9.158;2023-07-02T03:00:32;20.00;99.90
2212;DHT22;48849;48.758;9.158;2023-07-02T03:03:01;20.20;99.90
2212;DHT22;48849;48.758;9.158;2023-07-02T03:05:31;20.10;99.90
2212;DHT22;48849;48.758;9.158;2023-07-02T03:08:07;20.30;99.90
2212;DHT22;48849;48.758;9.158;2023-07-02T03:10:46;20.30;99.90
2212;DHT22;48849;48.758;9.158;2023-07-02T03:13:22;20.30;99.90
2212;DHT22;48849;48.758;9.158;2023-07-02T03:16:09;20.40;99.90
2212;DHT22;48849;48.758;9.158;2023-07-02T03:18:40;20.40;99.90
2212;DHT22;48849;48.758;9.158;2023-07-02T03:21:16;20.30;99.90
2212;DHT22;48849;48.758;9.158;2023-07-02T03:23:48;20.40;99.90
2212;DHT22;48849;48.758;9.158;2023-07-02T03:26:18;20.30;99.90
2212;DHT22;48849;48.758;9.158;2023-07-02T03:28:51;20.30;99.90
2212;DHT22;48849;48.758;9.158;2023-07-02T03:31:32;20.30;99.90
2212;DHT22;48849;48.758;9.158;2023-07-02T03:34:11;20.40;99.90
2212;DHT22;48849;48.758;9.158;2023-07-02T03:36:53;20.30;99.90
2212;DHT22;48849;48.758;9.158;2023-07-02T03:39:25;20.50;99.90
2212;DHT22;48849;48.758;9.158;2023-07-02T03:42:01;20.20;99.90
2212;DHT22;48849;48.758;9.158;2023-07-02T03:44:36;20.30;99.90
2212;DHT22;48849;48.758;9.158;2023-07-02T03:47:10;20.20;99.90
2212;DHT22;48849;48.758;9.158;2023-07-02T03:49:47;20.20;99.90
2212;DHT22;48849;48.758;9.158;2023-07-02T03:55:10;20.10;99.90
2212;DHT22;48849;48.758;9.158;2023-07-02T03:57:37;20.20;99.90
2212;DHT22;48849;48.758;9.158;2023-07-02T04:00:15;20.10;99.90
2212;DHT22;48849;48.758;9.158;2023-07-02T04:02:51;20.00;99.90
2212;DHT22;48849;48.758;9.158;2023-07-02T04:05:24;20.10;99.90
2212;DHT22;48849;48.758;9.158;2023-07-02T04:08:03;19.90;99.90
2212;DHT22;48849;48.758;9.158;2023-07-02T04:10:30;19.90;99.90
2212;DHT22;48849;48.758;9.158;2023-07-02T04:13:03;20.10;99.90
2212;DHT22;48849;48.758;9.158;2023-07-02T04:15:35;20.00;99.90
2212;DHT22;48849;48.758;9.158;2023-07-02T04:18:07;20.10;99.90
2212;DHT22;48849;48.758;9.158;2023-07-02T04:20:36;20.10;99.90
2212;DHT22;48849;48.758;9.158;2023-07-02T04:23:06;20.10;99.90
2212;DHT22;48849;48.758;9.158;2023-07-02T04:25:36;20.00;99.90
2212;DHT22;48849;48.758;9.158;2023-07-02T04:28:13;20.10;99.90
2212;DHT22;48849;48.758;9.158;2023-07-02T04:30:48;19.90;99.90
2212;DHT22;48849;48.758;9.158;2023-07-02T04:33:26;20.00;99.90
2212;DHT22;48849;48.758;9.158;2023-07-02T04:36:04;20.00;99.90
2212;DHT22;48849;48.758;9.158;2023-07-02T04:38:33;20.00;99.90
2212;DHT22;48849;48.758;9.158;2023-07-02T04:41:04;20.10;99.90
2212;DHT22;48849;48.758;9.158;2023-07-02T04:43:36;20.00;99.90
2212;DHT22;48849;48.758;9.158;2023-07-02T04:46:04;20.10;99.90
2212;DHT22;48849;48.758;9.158;2023-07-02T04:48:32;20.00;99.90
2212;DHT22;48849;48.758;9.158;2023-07-02T04:50:59;20.00;99.90
2212;DHT22;48849;48.758;9.158;2023-07-02T04:53:26;20.00;99.90
2212;DHT22;48849;48.758;9.158;2023-07-02T04:55:54;20.00;99.90
2212;DHT22;48849;48.758;9.158;2023-07-02T04:58:22;20.00;99.90
2212;DHT22;48849;48.758;9.158;2023-07-02T05:00:51;20.00;99.90
2212;DHT22;48849;48.758;9.158;2023-07-02T05:03:19;19.90;99.90
2212;DHT22;48849;48.758;9.158;2023-07-02T05:05:46;20.00;99.90
2212;DHT22;48849;48.758;9.158;2023-07-02T05:08:14;20.00;99.90
2212;DHT22;48849;48.758;9.158;2023-07-02T05:10:41;19.90;99.90
2212;DHT22;48849;48.758;9.158;2023-07-02T05:13:08;20.00;99.90
2212;DHT22;48849;48.758;9.158;2023-07-02T05:15:38;19.90;99.90
2212;DHT22;48849;48.758;9.158;2023-07-02T05:18:05;19.90;99.90
2212;DHT22;48849;48.758;9.158;2023-07-02T05:20:34;19.90;99.90
2212;DHT22;48849;48.758;9.158;2023-07-02T05:23:00;19.90;99.90
2212;DHT22;48849;48.758;9.158;2023-07-02T05:25:27;20.00;99.90
2212;DHT22;48849;48.758;9.158;2023-07-02T05:27:54;20.00;99.90
2212;DHT22;48849;48.758;9.158;2023-07-02T05:30:21;20.00;99.90
2212;DHT22;48849;48.758;9.158;2023-07-02T05:32:48;20.00;99.90
2212;DHT22;48849;48.758;9.158;2023-07-02T05:35:15;20.00;99.90
2212;DHT22;48849;48.758;9.158;2023-07-02T05:37:45;20.10;99.90
2212;DHT22;48849;48.758;9.158;2023-07-02T05:40:13;20.10;99.90
2212;DHT22;48849;48.758;9.158;2023-07-02T05:42:40;20.10;99.90
2212;DHT22;48849;48.758;9.158;2023-07-02T05:45:11;20.10;99.90
2212;DHT22;48849;48.758;9.158;2023-07-02T05:47:38;20.10;99.90
2212;DHT22;48849;48.758;9.158;2023-07-02T05:50:07;20.10;99.90
2212;DHT22;48849;48.758;9.158;2023-07-02T05:52:34;20.10;99.90
2212;DHT22;48849;48.758;9.158;2023-07-02T05:55:03;20.10;99.90
2212;DHT22;48849;48.758;9.158;2023-07-02T05:57:30;20.10;99.90
2212;DHT22;48849;48.758;9.158;2023-07-02T05:59:57;20.10;99.90
2212;DHT22;48849;48.758;9.158;2023-07-02T06:02:24;20.10;99.90
2212;DHT22;48849;48.758;9.158;2023-07-02T06:04:51;20.10;99.90
2212;DHT22;48849;48.758;9.158;2023-07-02T06:07:18;20.10;99.90
2212;DHT22;48849;48.758;9.158;2023-07-02T06:09:45;20.20;99.90
2212;DHT22;48849;48.758;9.158;2023-07-02T06:12:13;20.20;99.90
2212;DHT22;48849;48.758;9.158;2023-07-02T06:14:40;20.20;99.90
2212;DHT22;48849;48.758;9.158;2023-07-02T06:17:07;20.30;99.90
2212;DHT22;48849;48.758;9.158;2023-07-02T06:19:36;20.30;99.90
2212;DHT22;48849;48.758;9.158;2023-07-02T06:22:06;20.30;99.90
2212;DHT22;48849;48.758;9.158;2023-07-02T06:24:36;20.30;99.90
2212;DHT22;48849;48.758;9.158;2023-07-02T06:27:03;20.40;99.90
2212;DHT22;48849;48.758;9.158;2023-07-02T06:29:39;20.40;99.90
2212;DHT22;48849;48.758;9.158;2023-07-02T06:32:07;20.50;99.90
2212;DHT22;48849;48.758;9.158;2023-07-02T06:34:36;20.50;99.90
2212;DHT22;48849;48.758;9.158;2023-07-02T06:37:03;20.50;99.90
2212;DHT22;48849;48.758;9.158;2023-07-02T06:39:30;20.50;99.90
2212;DHT22;48849;48.758;9.158;2023-07-02T06:41:57;20.50;99.90
2212;DHT22;48849;48.758;9.158;2023-07-02T06:44:24;20.60;99.90
2212;DHT22;48849;48.758;9.158;2023-07-02T06:46:53;20.60;99.90
2212;DHT22;48849;48.758;9.158;2023-07-02T06:49:21;20.60;99.90
2212;DHT22;48849;48.758;9.158;2023-07-02T06:51:48;20.70;99.90
2212;DHT22;48849;48.758;9.158;2023-07-02T06:54:15;20.70;99.90
2212;DHT22;48849;48.758;9.158;2023-07-02T06:56:42;20.70;99.90
2212;DHT22;48849;48.758;9.158;2023-07-02T06:59:10;20.60;99.90
2212;DHT22;48849;48.758;9.158;2023-07-02T07:01:37;20.70;99.90
2212;DHT22;48849;48.758;9.158;2023-07-02T07:04:05;20.70;99.90
2212;DHT22;48849;48.758;9.158;2023-07-02T07:06:32;20.70;99.90
2212;DHT22;48849;48.758;9.158;2023-07-02T07:09:02;20.70;99.90
2212;DHT22;48849;48.758;9.158;2023-07-02T07:11:30;20.70;99.90
2212;DHT22;48849;48.758;9.158;2023-07-02T07:13:57;20.80;99.90
2212;DHT22;48849;48.758;9.158;2023-07-02T07:16:24;20.80;99.90
2212;DHT22;48849;48.758;9.158;2023-07-02T07:18:54;20.90;99.90
2212;DHT22;48849;48.758;9.158;2023-07-02T07:21:26;20.90;99.90
2212;DHT22;48849;48.758;9.158;2023-07-02T07:23:54;20.90;99.90
2212;DHT22;48849;48.758;9.158;2023-07-02T07:26:21;20.80;99.90
2212;DHT22;48849;48.758;9.158;2023-07-02T07:28:48;20.90;99.90
2212;DHT22;48849;48.758;9.158;2023-07-02T07:31:16;20.90;99.90
2212;DHT22;48849;48.758;9.158;2023-07-02T07:33:45;20.90;99.90
2212;DHT22;48849;48.758;9.158;2023-07-02T07:36:19;21.00;99.90
2212;DHT22;48849;48.758;9.158;2023-07-02T07:38:50;21.00;99.90
2212;DHT22;48849;48.758;9.158;2023-07-02T07:41:18;21.00;99.90
2212;DHT22;48849;48.758;9.158;2023-07-02T07:43:49;21.10;99.90
2212;DHT22;48849;48.758;9.158;2023-07-02T07:46:18;21.10;99.90
2212;DHT22;48849;48.758;9.158;2023-07-02T07:48:53;20.90;99.90
2212;DHT22;48849;48.758;9.158;2023-07-02T07:51:20;21.00;99.90
2212;DHT22;48849;48.758;9.158;2023-07-02T07:53:49;21.10;99.90
2212;DHT22;48849;48.758;9.158;2023-07-02T07:56:16;21.10;99.90
2212;DHT22;48849;48.758;9.158;2023-07-02T07:58:43;21.20;99.90
2212;DHT22;48849;48.758;9.158;2023-07-02T08:01:11;21.20;99.90
2212;DHT22;48849;48.758;9.158;2023-07-02T08:03:41;21.30;99.90
2212;DHT22;48849;48.758;9.158;2023-07-02T08:06:10;21.30;99.90
2212;DHT22;48849;48.758;9.158;2023-07-02T08:08:39;21.30;99.90
2212;DHT22;48849;48.758;9.158;2023-07-02T08:11:08;21.40;99.90
2212;DHT22;48849;48.758;9.158;2023-07-02T08:13:37;21.50;99.90
2212;DHT22;48849;48.758;9.158;2023-07-02T08:16:06;21.40;99.90
2212;DHT22;48849;48.758;9.158;2023-07-02T08:18:35;21.40;99.90
2212;DHT22;48849;48.758;9.158;2023-07-02T08:21:03;21.50;99.90
2212;DHT22;48849;48.758;9.158;2023-07-02T08:23:33;21.50;99.90
2212;DHT22;48849;48.758;9.158;2023-07-02T08:26:04;21.50;99.90
2212;DHT22;48849;48.758;9.158;2023-07-02T08:28:32;21.50;99.90
2212;DHT22;48849;48.758;9.158;2023-07-02T08:31:02;21.60;99.90
2212;DHT22;48849;48.758;9.158;2023-07-02T08:33:31;21.60;99.90
2212;DHT22;48849;48.758;9.158;2023-07-02T08:35:58;21.60;99.90
2212;DHT22;48849;48.758;9.158;2023-07-02T08:38:32;21.60;99.90
2212;DHT22;48849;48.758;9.158;2023-07-02T08:41:00;21.60;99.90
2212;DHT22;48849;48.758;9.158;2023-07-02T08:43:30;21.70;99.90
2212;DHT22;48849;48.758;9.158;2023-07-02T08:45:59;21.60;99.90
2212;DHT22;48849;48.758;9.158;2023-07-02T08:48:27;21.70;99.90
2212;DHT22;48849;48.758;9.158;2023-07-02T08:50:57;21.80;99.90
2212;DHT22;48849;48.758;9.158;2023-07-02T08:53:31;21.80;99.90
2212;DHT22;48849;48.758;9.158;2023-07-02T08:56:00;21.80;99.90
2212;DHT22;48849;48.758;9.158;2023-07-02T08:58:28;21.80;99.90
2212;DHT22;48849;48.758;9.158;2023-07-02T09:01:07;21.80;99.90
2212;DHT22;48849;48.758;9.158;2023-07-02T09:03:35;21.90;99.90
2212;DHT22;48849;48.758;9.158;2023-07-02T09:06:04;21.80;99.90
2212;DHT22;48849;48.758;9.158;2023-07-02T09:08:35;21.80;99.90
2212;DHT22;48849;48.758;9.158;2023-07-02T09:11:13;21.90;99.90
2212;DHT22;48849;48.758;9.158;2023-07-02T09:13:47;21.90;99.90
2212;DHT22;48849;48.758;9.158;2023-07-02T09:16:27;22.00;99.90
2212;DHT22;48849;48.758;9.158;2023-07-02T09:18:59;22.00;99.90
2212;DHT22;48849;48.758;9.158;2023-07-02T09:24:15;22.00;99.90
2212;DHT22;48849;48.758;9.158;2023-07-02T09:26:47;22.10;99.90
2212;DHT22;48849;48.758;9.158;2023-07-02T09:29:20;22.10;99.90
2212;DHT22;48849;48.758;9.158;2023-07-02T09:31:51;22.20;99.90
2212;DHT22;48849;48.758;9.158;2023-07-02T09:34:19;22.20;99.90
2212;DHT22;48849;48.758;9.158;2023-07-02T09:36:49;22.20;99.90
2212;DHT22;48849;48.758;9.158;2023-07-02T09:39:19;22.20;99.90
2212;DHT22;48849;48.758;9.158;2023-07-02T09:41:48;22.20;99.90
2212;DHT22;48849;48.758;9.158;2023-07-02T09:44:19;22.20;99.90
2212;DHT22;48849;48.758;9.158;2023-07-02T09:46:52;22.30;99.90
2212;DHT22;48849;48.758;9.158;2023-07-02T09:49:27;22.30;99.90
2212;DHT22;48849;48.758;9.158;2023-07-02T09:51:56;22.30;99.90
2212;DHT22;48849;48.758;9.158;2023-07-02T09:54:28;22.40;99.90
2212;DHT22;48849;48.758;9.158;2023-07-02T09:57:00;22.30;99.90
2212;DHT22;48849;48.758;9.158;2023-07-02T09:59:27;22.40;99.90
2212;DHT22;48849;48.758;9.158;2023-07-02T10:01:58;22.50;99.90
2212;DHT22;48849;48.758;9.158;2023-07-02T10:04:25;22.60;99.90
2212;DHT22;48849;48.758;9.158;2023-07-02T10:06:53;22.50;99.90
2212;DHT22;48849;48.758;9.158;2023-07-02T10:09:37;22.50;99.90
2212;DHT22;48849;48.758;9.158;2023-07-02T10:12:22;22.60;99.90
2212;DHT22;48849;48.758;9.158;2023-07-02T10:14:51;22.60;99.90
2212;DHT22;48849;48.758;9.158;2023-07-02T10:17:27;22.70;99.90
2212;DHT22;48849;48.758;9.158;2023-07-02T10:20:00;22.60;99.90
2212;DHT22;48849;48.758;9.158;2023-07-02T10:22:42;22.70;99.90
2212;DHT22;48849;48.758;9.158;2023-07-02T10:25:23;22.80;99.90
2212;DHT22;48849;48.758;9.158;2023-07-02T10:27:54;22.90;99.90
2212;DHT22;48849;48.758;9.158;2023-07-02T10:30:33;22.90;99.90
2212;DHT22;48849;48.758;9.158;2023-07-02T10:33:09;23.00;99.90
2212;DHT22;48849;48.758;9.158;2023-07-02T10:35:45;23.10;99.90
2212;DHT22;48849;48.758;9.158;2023-07-02T10:38:26;23.10;99.90
2212;DHT22;48849;48.758;9.158;2023-07-02T10:41:05;23.20;99.90
2212;DHT22;48849;48.758;9.158;2023-07-02T10:43:32;23.20;99.90
2212;DHT22;48849;48.758;9.158;2023-07-02T10:46:00;23.20;99.90
2212;DHT22;48849;48.758;9.158;2023-07-02T10:48:32;23.20;99.90
2212;DHT22;48849;48.758;9.158;2023-07-02T10:51:11;23.30;99.90
2212;DHT22;48849;48.758;9.158;2023-07-02T10:53:40;23.20;99.90
2212;DHT22;48849;48.758;9.158;2023-07-02T10:56:16;23.20;99.90
2212;DHT22;48849;48.758;9.158;2023-07-02T10:58:43;23.30;99.90
2212;DHT22;48849;48.758;9.158;2023-07-02T11:01:13;23.30;99.90
2212;DHT22;48849;48.758;9.158;2023-07-02T11:03:55;23.30;99.90
2212;DHT22;48849;48.758;9.158;2023-07-02T11:06:23;23.30;99.90
2212;DHT22;48849;48.758;9.158;2023-07-02T11:08:53;23.40;99.90
2212;DHT22;48849;48.758;9.158;2023-07-02T11:11:27;23.40;99.90
2212;DHT22;48849;48.758;9.158;2023-07-02T11:14:00;23.40;99.90
2212;DHT22;48849;48.758;9.158;2023-07-02T11:16:47;23.40;99.90
2212;DHT22;48849;48.758;9.158;2023-07-02T11:19:25;23.50;99.90
2212;DHT22;48849;48.758;9.158;2023-07-02T11:21:56;23.60;99.90
2212;DHT22;48849;48.758;9.158;2023-07-02T11:24:30;23.60;99.90
2212;DHT22;48849;48.758;9.158;2023-07-02T11:27:02;23.60;99.90
2212;DHT22;48849;48.758;9.158;2023-07-02T11:29:42;23.50;99.90
2212;DHT22;48849;48.758;9.158;2023-07-02T11:32:22;23.50;99.90
2212;DHT22;48849;48.758;9.158;2023-07-02T11:34:56;23.40;99.90
2212;DHT22;48849;48.758;9.158;2023-07-02T11:37:28;23.50;99.90
2212;DHT22;48849;48.758;9.158;2023-07-02T11:39:58;23.50;99.90
2212;DHT22;48849;48.758;9.158;2023-07-02T11:42:25;23.60;99.90
2212;DHT22;48849;48.758;9.158;2023-07-02T11:47:46;23.90;99.90
2212;DHT22;48849;48.758;9.158;2023-07-02T11:50:33;24.10;99.90
2212;DHT22;48849;48.758;9.158;2023-07-02T11:53:00;24.20;99.90
2212;DHT22;48849;48.758;9.158;2023-07-02T11:55:28;24.30;99.90
2212;DHT22;48849;48.758;9.158;2023-07-02T11:57:58;24.30;99.90
2212;DHT22;48849;48.758;9.158;2023-07-02T12:00:27;24.30;99.90
2212;DHT22;48849;48.758;9.158;2023-07-02T12:02:58;24.30;99.90
2212;DHT22;48849;48.758;9.158;2023-07-02T12:05:26;24.40;99.90
2212;DHT22;48849;48.758;9.158;2023-07-02T12:08:10;24.50;99.90
2212;DHT22;48849;48.758;9.158;2023-07-02T12:10:51;24.60;99.90
2212;DHT22;48849;48.758;9.158;2023-07-02T12:13:21;24.60;99.90
2212;DHT22;48849;48.758;9.158;2023-07-02T12:15:56;24.60;99.90
2212;DHT22;48849;48.758;9.158;2023-07-02T12:18:26;24.60;99.90
2212;DHT22;48849;48.758;9.158;2023-07-02T12:21:02;24.70;99.90
2212;DHT22;48849;48.758;9.158;2023-07-02T12:23:36;24.80;99.90
2212;DHT22;48849;48.758;9.158;2023-07-02T12:26:08;24.90;99.90
2212;DHT22;48849;48.758;9.158;2023-07-02T12:28:37;25.00;99.90
2212;DHT22;48849;48.758;9.158;2023-07-02T12:31:15;25.10;99.90
2212;DHT22;48849;48.758;9.158;2023-07-02T12:33:44;25.20;99.90
2212;DHT22;48849;48.758;9.158;2023-07-02T12:36:19;25.30;99.90
2212;DHT22;48849;48.758;9.158;2023-07-02T12:38:50;25.30;99.90
2212;DHT22;48849;48.758;9.158;2023-07-02T12:41:17;25.40;99.90
2212;DHT22;48849;48.758;9.158;2023-07-02T12:43:47;25.40;99.90
2212;DHT22;48849;48.758;9.158;2023-07-02T12:46:16;25.30;99.90
2212;DHT22;48849;48.758;9.158;2023-07-02T12:48:43;25.30;99.90
2212;DHT22;48849;48.758;9.158;2023-07-02T12:51:11;25.50;99.90
2212;DHT22;48849;48.758;9.158;2023-07-02T12:53:38;25.60;99.90
2212;DHT22;48849;48.758;9.158;2023-07-02T12:56:09;25.70;99.90
2212;DHT22;48849;48.758;9.158;2023-07-02T12:58:37;25.80;99.90
2212;DHT22;48849;48.758;9.158;2023-07-02T13:01:04;25.90;99.90
2212;DHT22;48849;48.758;9.158;2023-07-02T13:03:33;25.90;99.90
2212;DHT22;48849;48.758;9.158;2023-07-02T13:06:01;25.90;99.90
2212;DHT22;48849;48.758;9.158;2023-07-02T13:08:33;26.10;99.90
2212;DHT22;48849;48.758;9.158;2023-07-02T13:11:06;26.20;99.90
2212;DHT22;48849;48.758;9.158;2023-07-02T13:13:38;26.40;99.90
2212;DHT22;48849;48.758;9.158;2023-07-02T13:16:09;26.50;99.90
2212;DHT22;48849;48.758;9.158;2023-07-02T13:18:36;26.60;99.90
2212;DHT22;48849;48.758;9.158;2023-07-02T13:21:05;26.70;99.90
2212;DHT22;48849;48.758;9.158;2023-07-02T13:23:37;26.70;99.90
2212;DHT22;48849;48.758;9.158;2023-07-02T13:26:07;26.80;99.90
2212;DHT22;48849;48.758;9.158;2023-07-02T13:28:34;26.80;99.90
2212;DHT22;48849;48.758;9.158;2023-07-02T13:31:02;26.80;99.90
2212;DHT22;48849;48.758;9.158;2023-07-02T13:33:29;26.90;99.90
2212;DHT22;48849;48.758;9.158;2023-07-02T13:36:05;26.90;99.90
2212;DHT22;48849;48.758;9.158;2023-07-02T13:38:32;27.00;99.90
2212;DHT22;48849;48.758;9.158;2023-07-02T13:41:00;27.00;99.90
2212;DHT22;48849;48.758;9.158;2023-07-02T13:43:28;27.00;99.90
2212;DHT22;48849;48.758;9.158;2023-07-02T13:46:06;27.10;99.90
2212;DHT22;48849;48.758;9.158;2023-07-02T13:48:37;27.10;99.90
2212;DHT22;48849;48.758;9.158;2023-07-02T13:51:06;27.10;99.90
2212;DHT22;48849;48.758;9.158;2023-07-02T13:53:35;27.20;99.90
2212;DHT22;48849;48.758;9.158;2023-07-02T13:56:07;27.30;99.90
2212;DHT22;48849;48.758;9.158;2023-07-02T13:59:12;27.40;99.90
2212;DHT22;48849;48.758;9.158;2023-07-02T14:01:39;27.70;99.90
2212;DHT22;48849;48.758;9.158;2023-07-02T14:04:07;28.00;99.90
2212;DHT22;48849;48.758;9.158;2023-07-02T14:09:51;28.90;99.90
2212;DHT22;48849;48.758;9.158;2023-07-02T14:12:25;30.00;99.90
2212;DHT22;48849;48.758;9.158;2023-07-02T14:15:00;30.20;99.30
2212;DHT22;48849;48.758;9.158;2023-07-02T14:17:31;30.00;99.90
2212;DHT22;48849;48.758;9.158;2023-07-02T14:20:02;29.80;99.90
2212;DHT22;48849;48.758;9.158;2023-07-02T14:22:29;29.50;99.40
2212;DHT22;48849;48.758;9.158;2023-07-02T14:24:58;29.00;98.40
2212;DHT22;48849;48.758;9.158;2023-07-02T14:27:28;28.70;99.00
2212;DHT22;48849;48.758;9.158;2023-07-02T14:30:03;28.20;98.30
2212;DHT22;48849;48.758;9.158;2023-07-02T14:32:33;27.80;99.50
2212;DHT22;48849;48.758;9.158;2023-07-02T14:35:10;27.50;99.40
2212;DHT22;48849;48.758;9.158;2023-07-02T14:37:37;27.20;99.90
2212;DHT22;48849;48.758;9.158;2023-07-02T14:42:51;26.70;99.90
2212;DHT22;48849;48.758;9.158;2023-07-02T14:45:19;26.60;99.90
2212;DHT22;48849;48.758;9.158;2023-07-02T14:47:46;26.50;99.90
2212;DHT22;48849;48.758;9.158;2023-07-02T14:50:14;26.30;99.90
2212;DHT22;48849;48.758;9.158;2023-07-02T14:52:41;26.20;99.90
2212;DHT22;48849;48.758;9.158;2023-07-02T14:55:10;26.10;99.90
2212;DHT22;48849;48.758;9.158;2023-07-02T14:57:40;26.00;99.90
2212;DHT22;48849;48.758;9.158;2023-07-02T15:00:11;25.90;99.90
2212;DHT22;48849;48.758;9.158;2023-07-02T15:02:40;25.90;99.90
2212;DHT22;48849;48.758;9.158;2023-07-02T15:05:12;25.80;99.90
2212;DHT22;48849;48.758;9.158;2023-07-02T15:07:42;25.70;99.90
2212;DHT22;48849;48.758;9.158;2023-07-02T15:10:09;25.70;99.90
2212;DHT22;48849;48.758;9.158;2023-07-02T15:12:36;25.60;99.90
2212;DHT22;48849;48.758;9.158;2023-07-02T15:15:10;25.60;99.90
2212;DHT22;48849;48.758;9.158;2023-07-02T15:17:41;25.60;99.90
2212;DHT22;48849;48.758;9.158;2023-07-02T15:20:09;25.50;99.90
2212;DHT22;48849;48.758;9.158;2023-07-02T15:22:37;25.50;99.90
2212;DHT22;48849;48.758;9.158;2023-07-02T15:25:05;25.50;99.90
2212;DHT22;48849;48.758;9.158;2023-07-02T15:27:32;25.50;99.90
2212;DHT22;48849;48.758;9.158;2023-07-02T15:29:59;25.40;99.90
2212;DHT22;48849;48.758;9.158;2023-07-02T15:32:29;25.30;99.90
2212;DHT22;48849;48.758;9.158;2023-07-02T15:35:10;25.30;99.90
2212;DHT22;48849;48.758;9.158;2023-07-02T15:37:39;25.30;99.90
2212;DHT22;48849;48.758;9.158;2023-07-02T15:40:09;25.30;99.90
2212;DHT22;48849;48.758;9.158;2023-07-02T15:42:36;25.30;99.90
2212;DHT22;48849;48.758;9.158;2023-07-02T15:45:04;25.30;99.90
2212;DHT22;48849;48.758;9.158;2023-07-02T15:47:32;25.20;99.90
2212;DHT22;48849;48.758;9.158;2023-07-02T15:49:59;25.20;99.90
2212;DHT22;48849;48.758;9.158;2023-07-02T15:52:29;25.20;99.90
2212;DHT22;48849;48.758;9.158;2023-07-02T15:54:59;25.20;99.90
2212;DHT22;48849;48.758;9.158;2023-07-02T15:57:26;25.10;99.90
2212;DHT22;48849;48.758;9.158;2023-07-02T15:59:53;25.20;99.90
2212;DHT22;48849;48.758;9.158;2023-07-02T16:02:20;25.10;99.90
2212;DHT22;48849;48.758;9.158;2023-07-02T16:04:50;25.20;99.90
2212;DHT22;48849;48.758;9.158;2023-07-02T16:07:17;25.20;99.90
2212;DHT22;48849;48.758;9.158;2023-07-02T16:09:59;25.10;99.90
2212;DHT22;48849;48.758;9.158;2023-07-02T16:12:26;25.10;99.90
2212;DHT22;48849;48.758;9.158;2023-07-02T16:14:55;25.10;99.90
2212;DHT22;48849;48.758;9.158;2023-07-02T16:17:22;25.10;99.90
2212;DHT22;48849;48.758;9.158;2023-07-02T16:19:52;25.10;99.90
2212;DHT22;48849;48.758;9.158;2023-07-02T16:22:19;25.10;99.90
2212;DHT22;48849;48.758;9.158;2023-07-02T16:24:49;25.10;99.90
2212;DHT22;48849;48.758;9.158;2023-07-02T16:27:22;25.10;99.90
2212;DHT22;48849;48.758;9.158;2023-07-02T16:29:49;25.20;99.90
2212;DHT22;48849;48.758;9.158;2023-07-02T16:32:16;25.00;99.90
2212;DHT22;48849;48.758;9.158;2023-07-02T16:34:45;25.10;99.90